createdAt,value
2023-03-21T00:01:00.693Z,5.00
2023-03-21T00:03:30.837Z,6.47
2023-03-21T00:05:59.001Z,4.72
2023-03-21T00:08:28.125Z,5.38
2023-03-21T00:11:00.775Z,4.95
2023-03-21T00:13:32.528Z,4.82
2023-03-21T00:18:56.203Z,4.78
2023-03-21T00:24:16.731Z,4.97
2023-03-21T00:26:45.024Z,4.95
2023-03-21T00:29:13.210Z,4.15
2023-03-21T00:31:42.964Z,3.55
2023-03-21T00:36:39.364Z,4.35
2023-03-21T00:39:07.698Z,4.18
2023-03-21T00:41:42.841Z,4.35
2023-03-21T00:44:15.945Z,4.82
2023-03-21T00:46:57.451Z,6.13
2023-03-21T00:49:38.560Z,5.28
2023-03-21T00:52:18.606Z,5.07
2023-03-21T00:54:52.975Z,5.43
2023-03-21T00:57:29.370Z,4.78
2023-03-21T01:00:07.398Z,5.50
2023-03-21T01:02:38.273Z,4.88
2023-03-21T01:05:07.597Z,5.13
2023-03-21T01:07:36.113Z,5.13
2023-03-21T01:10:05.407Z,5.65
2023-03-21T01:12:33.616Z,4.88
2023-03-21T01:15:01.776Z,4.68
2023-03-21T01:17:30.014Z,5.43
2023-03-21T01:19:59.687Z,6.13
2023-03-21T01:22:28.069Z,4.57
2023-03-21T01:25:03.082Z,4.53
2023-03-21T01:27:40.767Z,5.28
2023-03-21T01:30:19.103Z,5.70
2023-03-21T01:32:48.886Z,6.13
2023-03-21T01:35:18.810Z,4.50
2023-03-21T01:37:48.748Z,4.32
2023-03-21T01:40:20.714Z,5.30
2023-03-21T01:42:48.822Z,5.00
2023-03-21T01:46:22.463Z,5.20
2023-03-21T01:48:58.463Z,4.07
2023-03-21T01:51:30.512Z,5.28
2023-03-21T01:54:00.633Z,5.20
2023-03-21T01:56:34.228Z,4.60
2023-03-21T01:59:12.697Z,4.60
2023-03-21T02:01:43.687Z,5.35
2023-03-21T02:04:13.113Z,5.38
2023-03-21T02:06:50.300Z,5.03
2023-03-21T02:11:53.107Z,4.75
2023-03-21T02:14:28.872Z,4.72
2023-03-21T02:17:11.573Z,6.20
2023-03-21T02:20:22.182Z,5.00
2023-03-21T02:23:36.783Z,4.65
2023-03-21T02:27:11.813Z,4.72
2023-03-21T02:30:28.051Z,6.25
2023-03-21T02:33:52.949Z,4.25
2023-03-21T02:36:41.624Z,4.95
2023-03-21T02:39:18.727Z,6.65
2023-03-21T02:44:26.915Z,4.28
2023-03-21T02:47:06.042Z,4.70
2023-03-21T02:49:43.568Z,3.78
2023-03-21T02:52:28.628Z,4.72
2023-03-21T02:55:13.925Z,4.60
2023-03-21T02:57:46.693Z,3.53
2023-03-21T03:00:22.638Z,3.53
2023-03-21T03:03:02.582Z,3.42
2023-03-21T03:05:45.033Z,5.38
2023-03-21T03:08:43.131Z,4.65
2023-03-21T03:11:28.785Z,3.25
2023-03-21T03:14:56.448Z,3.75
2023-03-21T03:17:28.577Z,3.83
2023-03-21T03:20:17.373Z,4.00
2023-03-21T03:22:58.720Z,4.07
2023-03-21T03:25:43.057Z,3.00
2023-03-21T03:28:18.117Z,3.53
2023-03-21T03:31:07.069Z,4.28
2023-03-21T03:33:41.504Z,2.92
2023-03-21T03:36:25.049Z,2.92
2023-03-21T03:38:59.528Z,3.40
2023-03-21T03:41:50.277Z,4.68
2023-03-21T03:44:21.762Z,4.90
2023-03-21T03:47:00.968Z,4.30
2023-03-21T03:49:38.348Z,3.78
2023-03-21T03:52:13.649Z,3.92
2023-03-21T03:54:47.445Z,3.13
2023-03-21T03:57:17.287Z,4.80
2023-03-21T03:59:48.245Z,2.80
2023-03-21T04:02:17.348Z,3.83
2023-03-21T04:04:45.734Z,4.47
2023-03-21T04:07:14.434Z,6.03
2023-03-21T04:09:44.869Z,3.80
2023-03-21T04:12:13.914Z,4.72
2023-03-21T04:14:47.128Z,3.80
2023-03-21T04:17:17.719Z,3.95
2023-03-21T04:19:46.640Z,3.53
2023-03-21T04:22:15.568Z,3.70
2023-03-21T04:24:44.086Z,4.45
2023-03-21T04:27:13.642Z,4.28
2023-03-21T04:29:41.940Z,4.97
2023-03-21T04:32:19.839Z,3.70
2023-03-21T04:34:50.095Z,4.30
2023-03-21T04:37:19.348Z,3.10
2023-03-21T04:39:47.934Z,4.40
2023-03-21T04:42:18.475Z,4.20
2023-03-21T04:44:46.814Z,3.72
2023-03-21T04:47:16.008Z,4.97
2023-03-21T04:49:44.160Z,3.85
2023-03-21T04:52:13.736Z,3.78
2023-03-21T04:54:41.930Z,4.10
2023-03-21T04:57:10.337Z,3.28
2023-03-21T04:59:38.572Z,4.63
2023-03-21T05:02:07.120Z,3.47
2023-03-21T05:04:35.382Z,4.05
2023-03-21T05:07:03.671Z,3.63
2023-03-21T05:09:33.362Z,4.15
2023-03-21T05:12:01.765Z,3.28
2023-03-21T05:14:30.114Z,3.90
2023-03-21T05:16:59.309Z,4.38
2023-03-21T05:19:35.084Z,4.38
2023-03-21T05:22:10.170Z,4.47
2023-03-21T05:24:42.201Z,3.55
2023-03-21T05:27:11.265Z,5.07
2023-03-21T05:29:39.805Z,4.60
2023-03-21T05:32:08.956Z,3.72
2023-03-21T05:34:38.121Z,4.53
2023-03-21T05:37:15.421Z,3.88
2023-03-21T05:39:52.334Z,5.15
2023-03-21T05:42:35.064Z,3.65
2023-03-21T05:45:20.712Z,4.10
2023-03-21T05:47:49.214Z,4.68
2023-03-21T05:50:17.728Z,3.97
2023-03-21T05:52:46.066Z,4.15
2023-03-21T05:55:15.744Z,4.53
2023-03-21T05:57:44.033Z,3.22
2023-03-21T06:00:14.045Z,4.22
2023-03-21T06:02:42.375Z,3.45
2023-03-21T06:05:11.368Z,4.60
2023-03-21T06:07:40.009Z,3.45
2023-03-21T06:10:09.354Z,2.75
2023-03-21T06:12:39.107Z,2.83
2023-03-21T06:15:09.656Z,5.70
2023-03-21T06:17:38.074Z,3.42
2023-03-21T06:20:08.749Z,3.35
2023-03-21T06:22:40.193Z,3.80
2023-03-21T06:25:10.343Z,4.22
2023-03-21T06:27:39.956Z,3.55
2023-03-21T06:30:11.093Z,3.13
2023-03-21T06:32:39.645Z,3.92
2023-03-21T06:35:08.937Z,3.50
2023-03-21T06:37:37.743Z,3.45
2023-03-21T06:40:09.935Z,3.65
2023-03-21T06:42:39.870Z,3.90
2023-03-21T06:45:09.663Z,3.60
2023-03-21T06:47:37.943Z,3.60
2023-03-21T06:50:07.542Z,2.95
2023-03-21T06:52:35.812Z,3.90
2023-03-21T06:55:05.525Z,2.90
2023-03-21T06:57:33.655Z,4.43
2023-03-21T07:00:05.396Z,3.20
2023-03-21T07:02:33.739Z,3.95
2023-03-21T07:05:02.146Z,4.25
2023-03-21T07:07:30.559Z,3.72
2023-03-21T07:09:58.645Z,4.07
2023-03-21T07:12:26.861Z,4.07
2023-03-21T07:14:55.696Z,3.83
2023-03-21T07:17:25.169Z,3.90
2023-03-21T07:19:53.298Z,4.03
2023-03-21T07:22:21.610Z,3.60
2023-03-21T07:25:02.415Z,3.20
2023-03-21T07:27:32.945Z,3.83
2023-03-21T07:30:01.178Z,3.63
2023-03-21T07:32:33.881Z,4.43
2023-03-21T07:35:02.087Z,3.10
2023-03-21T07:37:30.678Z,3.80
2023-03-21T07:39:58.795Z,3.35
2023-03-21T07:42:27.004Z,3.47
2023-03-21T07:44:55.329Z,3.78
2023-03-21T07:47:23.423Z,4.40
2023-03-21T07:49:52.850Z,3.85
2023-03-21T07:52:21.051Z,3.90
2023-03-21T07:54:49.160Z,3.85
2023-03-21T07:57:17.730Z,4.53
2023-03-21T07:59:46.131Z,4.47
2023-03-21T08:02:16.731Z,3.78
2023-03-21T08:04:51.720Z,4.85
2023-03-21T08:07:23.111Z,4.18
2023-03-21T08:09:52.165Z,4.68
2023-03-21T08:12:20.848Z,5.28
2023-03-21T08:14:49.394Z,6.10
2023-03-21T08:17:17.668Z,4.68
2023-03-21T08:19:45.882Z,6.00
2023-03-21T08:22:14.042Z,4.35
2023-03-21T08:24:45.028Z,5.18
2023-03-21T08:27:13.798Z,5.68
2023-03-21T08:29:42.569Z,6.03
2023-03-21T08:32:11.085Z,5.43
2023-03-21T08:34:39.277Z,5.47
2023-03-21T08:37:07.481Z,5.05
2023-03-21T08:39:39.007Z,4.50
2023-03-21T08:42:08.739Z,5.70
2023-03-21T08:44:38.911Z,5.63
2023-03-21T08:47:08.156Z,5.57
2023-03-21T08:49:36.880Z,6.18
2023-03-21T08:52:06.826Z,6.85
2023-03-21T08:54:35.279Z,6.30
2023-03-21T08:57:03.657Z,6.00
2023-03-21T08:59:33.160Z,6.35
2023-03-21T09:02:01.213Z,5.72
2023-03-21T09:04:31.125Z,6.95
2023-03-21T09:07:01.474Z,6.03
2023-03-21T09:09:29.603Z,8.23
2023-03-21T09:11:57.765Z,6.75
2023-03-21T09:14:28.818Z,5.28
2023-03-21T09:16:58.678Z,5.60
2023-03-21T09:19:27.822Z,4.93
2023-03-21T09:21:55.859Z,5.78
2023-03-21T09:24:24.217Z,5.57
2023-03-21T09:26:52.378Z,4.90
2023-03-21T09:29:21.431Z,4.85
2023-03-21T09:31:49.810Z,5.78
2023-03-21T09:34:19.329Z,4.95
2023-03-21T09:36:48.571Z,5.65
2023-03-21T09:39:17.394Z,5.25
2023-03-21T09:42:09.981Z,5.65
2023-03-21T09:44:52.766Z,4.30
2023-03-21T09:47:25.444Z,4.53
2023-03-21T09:50:13.776Z,5.10
2023-03-21T09:52:49.622Z,5.75
2023-03-21T09:55:23.346Z,4.13
2023-03-21T09:58:04.558Z,6.00
2023-03-21T10:00:40.144Z,4.75
2023-03-21T10:03:26.279Z,4.70
2023-03-21T10:05:58.881Z,5.20
2023-03-21T10:08:34.410Z,4.95
2023-03-21T10:11:11.161Z,4.32
2023-03-21T10:13:47.660Z,4.47
2023-03-21T10:16:19.561Z,5.47
2023-03-21T10:18:50.956Z,4.03
2023-03-21T10:21:51.399Z,5.00
2023-03-21T10:24:17.500Z,4.95
2023-03-21T10:26:46.491Z,5.07
2023-03-21T10:29:18.575Z,6.25
2023-03-21T10:31:48.670Z,5.90
2023-03-21T10:34:21.783Z,6.20
2023-03-21T10:36:51.389Z,5.43
2023-03-21T10:39:29.146Z,5.85
2023-03-21T10:41:57.207Z,5.35
2023-03-21T10:44:31.900Z,5.40
2023-03-21T10:47:06.748Z,7.90
2023-03-21T10:49:40.716Z,6.53
2023-03-21T10:52:23.273Z,4.70
2023-03-21T10:55:09.590Z,5.63
2023-03-21T10:57:38.778Z,5.15
2023-03-21T11:00:18.308Z,4.20
2023-03-21T11:02:51.142Z,4.35
2023-03-21T11:05:24.081Z,4.00
2023-03-21T11:08:02.950Z,3.80
2023-03-21T11:10:35.478Z,3.03
2023-03-21T11:13:08.506Z,2.88
2023-03-21T11:15:53.132Z,3.13
2023-03-21T11:18:25.734Z,2.75
2023-03-21T11:20:57.807Z,3.13
2023-03-21T11:23:33.302Z,3.15
2023-03-21T11:26:04.088Z,2.50
2023-03-21T11:28:39.335Z,3.88
2023-03-21T11:31:09.768Z,2.88
2023-03-21T11:33:41.224Z,2.97
2023-03-21T11:36:35.167Z,3.17
2023-03-21T11:39:28.944Z,3.03
2023-03-21T11:41:57.384Z,3.92
2023-03-21T11:44:30.862Z,3.95
2023-03-21T11:46:59.790Z,3.97
2023-03-21T11:49:29.537Z,3.85
2023-03-21T11:52:25.031Z,3.20
2023-03-21T11:55:34.114Z,4.30
2023-03-21T11:58:31.233Z,4.63
2023-03-21T12:01:19.398Z,3.65
2023-03-21T12:05:00.974Z,3.67
2023-03-21T12:07:47.035Z,3.80
2023-03-21T12:10:37.282Z,4.72
2023-03-21T12:13:26.968Z,3.80
2023-03-21T12:16:16.217Z,4.32
2023-03-21T12:19:24.785Z,4.43
2023-03-21T12:24:55.112Z,4.45
2023-03-21T12:27:45.317Z,3.53
2023-03-21T12:30:33.300Z,4.05
2023-03-21T12:33:22.325Z,3.67
2023-03-21T12:36:18.400Z,3.40
2023-03-21T12:39:02.164Z,3.85
2023-03-21T12:41:39.768Z,3.35
2023-03-21T12:44:15.899Z,3.88
2023-03-21T12:46:52.316Z,4.43
2023-03-21T12:49:32.563Z,4.00
2023-03-21T12:52:09.063Z,4.25
2023-03-21T12:54:43.509Z,4.03
2023-03-21T12:57:19.317Z,4.68
2023-03-21T13:00:00.188Z,5.05
2023-03-21T13:02:34.239Z,3.78
2023-03-21T13:05:18.043Z,4.82
2023-03-21T13:07:53.533Z,3.80
2023-03-21T13:10:23.481Z,4.70
2023-03-21T13:13:13.489Z,4.53
2023-03-21T13:16:19.859Z,4.05
2023-03-21T13:19:08.373Z,4.07
2023-03-21T13:21:48.852Z,4.15
2023-03-21T13:24:28.379Z,4.45
2023-03-21T13:27:07.497Z,3.72
2023-03-21T13:29:47.405Z,3.60
2023-03-21T13:32:29.254Z,4.25
2023-03-21T13:35:00.210Z,3.35
2023-03-21T13:37:33.712Z,4.10
2023-03-21T13:40:12.844Z,4.05
2023-03-21T13:42:49.877Z,4.18
2023-03-21T13:47:59.373Z,3.75
2023-03-21T13:50:34.993Z,3.15
2023-03-21T13:53:27.974Z,3.75
2023-03-21T13:56:21.122Z,3.85
2023-03-21T13:59:01.710Z,3.35
2023-03-21T14:01:39.904Z,3.70
2023-03-21T14:04:20.150Z,3.83
2023-03-21T14:07:00.572Z,3.95
2023-03-21T14:09:34.749Z,4.15
2023-03-21T14:12:09.247Z,4.78
2023-03-21T14:14:43.904Z,4.60
2023-03-21T14:17:16.519Z,3.95
2023-03-21T14:19:47.201Z,4.18
2023-03-21T14:22:16.904Z,4.10
2023-03-21T14:24:50.870Z,3.88
2023-03-21T14:27:25.595Z,4.20
2023-03-21T14:29:56.779Z,3.80
2023-03-21T14:32:29.068Z,3.67
2023-03-21T14:35:02.566Z,5.65
2023-03-21T14:37:34.962Z,4.88
2023-03-21T14:40:10.361Z,4.13
2023-03-21T14:42:39.825Z,4.05
2023-03-21T14:45:21.032Z,3.60
2023-03-21T14:48:01.681Z,3.55
2023-03-21T14:50:46.783Z,3.80
2023-03-21T14:53:26.707Z,3.38
2023-03-21T14:56:03.179Z,3.50
2023-03-21T14:58:39.040Z,3.38
2023-03-21T15:01:16.078Z,4.50
2023-03-21T15:03:46.518Z,3.92
2023-03-21T15:06:17.840Z,3.20
2023-03-21T15:08:57.261Z,3.38
2023-03-21T15:11:32.695Z,4.00
2023-03-21T15:14:04.699Z,3.33
2023-03-21T15:16:34.087Z,3.63
2023-03-21T15:19:05.311Z,3.35
2023-03-21T15:21:43.876Z,4.22
2023-03-21T15:24:18.797Z,4.88
2023-03-21T15:26:49.229Z,3.15
2023-03-21T15:29:19.659Z,3.88
2023-03-21T15:31:49.783Z,3.63
2023-03-21T15:34:24.710Z,2.95
2023-03-21T15:37:02.159Z,4.78
2023-03-21T15:39:31.181Z,3.28
2023-03-21T15:42:03.452Z,2.92
2023-03-21T15:44:32.169Z,4.03
2023-03-21T15:47:00.750Z,3.35
2023-03-21T15:49:32.357Z,3.28
2023-03-21T15:52:08.395Z,2.78
2023-03-21T15:54:44.162Z,2.93
2023-03-21T15:57:24.562Z,2.85
2023-03-21T16:00:00.677Z,2.97
2023-03-21T16:02:31.915Z,3.70
2023-03-21T16:05:02.925Z,3.47
2023-03-21T16:07:36.215Z,2.50
2023-03-21T16:10:06.198Z,2.63
2023-03-21T16:12:35.230Z,3.40
2023-03-21T16:15:03.466Z,2.28
2023-03-21T16:17:38.140Z,2.85
2023-03-21T16:20:20.389Z,3.00
2023-03-21T16:22:50.509Z,2.53
2023-03-21T16:25:19.189Z,2.03
2023-03-21T16:27:56.103Z,2.38
2023-03-21T16:30:31.226Z,2.30
2023-03-21T16:32:59.737Z,2.90
2023-03-21T16:35:27.982Z,3.25
2023-03-21T16:37:57.529Z,2.47
2023-03-21T16:40:31.280Z,2.70
2023-03-21T16:42:59.383Z,2.17
2023-03-21T16:45:29.186Z,2.70
2023-03-21T16:47:58.789Z,3.40
2023-03-21T16:50:33.661Z,2.92
2023-03-21T16:53:04.776Z,2.53
2023-03-21T16:55:34.761Z,2.10
2023-03-21T16:58:03.167Z,2.15
2023-03-21T17:00:32.257Z,3.20
2023-03-21T17:03:04.153Z,2.03
2023-03-21T17:05:32.696Z,2.97
2023-03-21T17:08:04.978Z,2.45
2023-03-21T17:10:33.936Z,2.20
2023-03-21T17:13:02.022Z,2.65
2023-03-21T17:15:30.255Z,2.90
2023-03-21T17:17:58.419Z,2.72
2023-03-21T17:20:31.878Z,2.75
2023-03-21T17:23:01.245Z,2.58
2023-03-21T17:25:30.912Z,2.78
2023-03-21T17:28:03.052Z,2.58
2023-03-21T17:30:34.799Z,2.63
2023-03-21T17:33:04.377Z,2.20
2023-03-21T17:35:34.599Z,3.08
2023-03-21T17:38:04.121Z,3.25
2023-03-21T17:40:37.123Z,2.75
2023-03-21T17:43:10.563Z,2.17
2023-03-21T17:45:38.818Z,3.42
2023-03-21T17:48:07.939Z,2.25
2023-03-21T17:50:37.559Z,2.75
2023-03-21T17:53:06.085Z,2.38
2023-03-21T17:55:37.055Z,2.40
2023-03-21T17:58:06.169Z,1.90
2023-03-21T18:00:34.353Z,2.70
2023-03-21T18:03:02.544Z,2.30
2023-03-21T18:05:31.238Z,2.65
2023-03-21T18:08:10.472Z,1.98
2023-03-21T18:10:44.113Z,1.90
2023-03-21T18:13:12.319Z,2.30
2023-03-21T18:15:44.228Z,2.10
2023-03-21T18:18:16.037Z,2.00
2023-03-21T18:20:52.187Z,3.08
2023-03-21T18:23:21.412Z,3.25
2023-03-21T18:25:53.032Z,2.92
2023-03-21T18:28:22.502Z,3.75
2023-03-21T18:31:08.283Z,3.22
2023-03-21T18:33:46.551Z,2.90
2023-03-21T18:36:24.109Z,2.88
2023-03-21T18:38:53.573Z,3.05
2023-03-21T18:41:29.434Z,3.13
2023-03-21T18:44:05.873Z,3.33
2023-03-21T18:46:47.262Z,2.58
2023-03-21T18:52:10.991Z,3.25
2023-03-21T18:54:40.825Z,3.10
2023-03-21T18:59:58.981Z,3.25
2023-03-21T19:02:45.636Z,2.60
2023-03-21T19:05:17.765Z,5.13
2023-03-21T19:07:46.585Z,5.07
2023-03-21T19:10:18.997Z,3.25
2023-03-21T19:12:49.992Z,2.55
2023-03-21T19:15:21.690Z,6.45
2023-03-21T19:20:45.357Z,6.93
2023-03-21T19:23:16.268Z,6.70
2023-03-21T19:25:45.557Z,3.70
2023-03-21T19:28:15.407Z,10.38
2023-03-21T19:30:49.660Z,4.57
2023-03-21T19:33:20.099Z,4.05
2023-03-21T19:36:08.977Z,3.45
2023-03-21T19:38:40.055Z,2.60
2023-03-21T19:41:08.853Z,3.78
2023-03-21T19:43:40.230Z,3.40
2023-03-21T19:46:11.235Z,7.00
2023-03-21T19:48:41.894Z,9.35
2023-03-21T19:53:59.400Z,5.10
2023-03-21T19:56:27.951Z,4.13
2023-03-21T19:58:58.019Z,4.85
2023-03-21T20:01:28.839Z,4.07
2023-03-21T20:03:57.727Z,3.28
2023-03-21T20:06:26.909Z,4.75
2023-03-21T20:11:48.445Z,4.47
2023-03-21T20:14:20.687Z,4.53
2023-03-21T20:16:50.652Z,4.68
2023-03-21T20:19:20.144Z,3.30
2023-03-21T20:21:57.928Z,3.65
2023-03-21T20:24:28.170Z,3.78
2023-03-21T20:26:57.325Z,2.38
2023-03-21T20:32:15.930Z,3.53
2023-03-21T20:34:46.163Z,5.28
2023-03-21T20:37:15.861Z,3.60
2023-03-21T20:39:44.417Z,3.10
2023-03-21T20:42:14.149Z,3.10
2023-03-21T20:45:01.668Z,3.83
2023-03-21T20:47:35.831Z,3.00
2023-03-21T20:50:06.679Z,3.28
2023-03-21T20:53:04.909Z,3.05
2023-03-21T20:55:23.427Z,3.33
2023-03-21T20:57:52.112Z,2.95
2023-03-21T21:00:22.624Z,3.58
2023-03-21T21:02:53.846Z,4.75
2023-03-21T21:05:27.817Z,5.63
2023-03-21T21:07:59.286Z,4.85
2023-03-21T21:10:28.762Z,4.35
2023-03-21T21:12:57.252Z,5.50
2023-03-21T21:15:27.243Z,3.53
2023-03-21T21:18:06.608Z,4.80
2023-03-21T21:20:36.566Z,3.78
2023-03-21T21:23:06.055Z,4.95
2023-03-21T21:25:36.728Z,4.07
2023-03-21T21:28:13.086Z,5.18
2023-03-21T21:30:42.843Z,4.63
2023-03-21T21:33:11.296Z,4.45
2023-03-21T21:35:39.591Z,3.85
2023-03-21T21:38:09.691Z,5.10
2023-03-21T21:40:38.355Z,4.53
2023-03-21T21:43:06.834Z,4.85
2023-03-21T21:45:35.051Z,5.53
2023-03-21T21:48:05.037Z,4.45
2023-03-21T21:50:35.035Z,4.25
2023-03-21T21:53:06.090Z,4.22
2023-03-21T21:55:34.873Z,3.95
2023-03-21T21:58:04.144Z,11.63
2023-03-21T22:00:34.179Z,6.13
2023-03-21T22:03:04.496Z,5.75
2023-03-21T22:05:33.036Z,6.07
2023-03-21T22:08:01.157Z,7.38
2023-03-21T22:10:30.440Z,8.52
2023-03-21T22:12:58.631Z,6.78
2023-03-21T22:15:27.168Z,6.00
2023-03-21T22:17:55.514Z,7.65
2023-03-21T22:20:25.068Z,5.50
2023-03-21T22:22:57.591Z,6.20
2023-03-21T22:25:25.921Z,6.47
2023-03-21T22:27:54.257Z,7.60
2023-03-21T22:30:22.598Z,6.80
2023-03-21T22:33:06.176Z,4.20
2023-03-21T22:35:38.563Z,5.90
2023-03-21T22:38:06.821Z,4.30
2023-03-21T22:40:34.968Z,5.25
2023-03-21T22:43:03.203Z,4.15
2023-03-21T22:45:32.462Z,5.03
2023-03-21T22:48:00.795Z,5.18
2023-03-21T22:50:29.513Z,5.65
2023-03-21T22:52:58.979Z,5.35
2023-03-21T22:55:27.309Z,4.72
2023-03-21T22:57:55.811Z,4.95
2023-03-21T23:00:24.064Z,4.40
2023-03-21T23:02:52.397Z,5.03
2023-03-21T23:05:20.778Z,4.68
2023-03-21T23:07:48.915Z,5.53
2023-03-21T23:10:19.001Z,4.15
2023-03-21T23:12:47.204Z,4.28
2023-03-21T23:15:15.514Z,5.18
2023-03-21T23:17:44.201Z,4.68
2023-03-21T23:20:13.156Z,5.35
2023-03-21T23:22:41.786Z,4.88
2023-03-21T23:25:11.999Z,5.13
2023-03-21T23:27:41.730Z,6.07
2023-03-21T23:30:10.947Z,5.05
2023-03-21T23:32:39.266Z,6.47
2023-03-21T23:35:19.908Z,5.90
2023-03-21T23:38:05.500Z,6.63
2023-03-21T23:40:37.664Z,5.15
2023-03-21T23:51:09.409Z,5.55
